Schwenksville, Pennsylvania
Current Conditions -  °F | °C
As of 9:54 PM on Tuesday 21 Oct 2014 (Local Time) from KPTW Reporting Station
Overcast Overcast  
Wind Chill: 57°   Ceiling: 6000
Heat Index: 57°   Visibility: 10mi
Dew Point: 49°   Wind: 5mph
Humidity: 74%   Direction: 50°NE
Pressure: 29.91"   Gusts: NA
Location:  40.26°N, 75.46°W
Report Text: KPTW 220154Z AUTO 05004KT 10SM SCT044 OVC060 14/09 A2991 RMK AO2 SLP126 T01390094
Loading
Personal Weather Stations






























Interactive Weather Map
Tropical Storm Tracking
New forecast layout! Learn more

10-Day Weather Forecast

Advertisements
Track Severe Weather on mobile